sensor_id;sensor_type;location;lat;lon;timestamp;P1;durP1;ratioP1;P2;durP2;ratioP2
52508;SDS011;38420;53.150;6.370;2023-05-17T00:00:45;22.45;;;4.55;;
52508;SDS011;38420;53.150;6.370;2023-05-17T00:03:10;22.00;;;4.47;;
52508;SDS011;38420;53.150;6.370;2023-05-17T00:05:36;25.15;;;4.50;;
52508;SDS011;38420;53.150;6.370;2023-05-17T00:08:01;26.50;;;4.90;;
52508;SDS011;38420;53.150;6.370;2023-05-17T00:10:27;28.60;;;5.30;;
52508;SDS011;38420;53.150;6.370;2023-05-17T00:12:53;19.55;;;4.53;;
52508;SDS011;38420;53.150;6.370;2023-05-17T00:15:18;19.23;;;4.78;;
52508;SDS011;38420;53.150;6.370;2023-05-17T00:17:44;24.35;;;4.13;;
52508;SDS011;38420;53.150;6.370;2023-05-17T00:20:09;22.65;;;4.40;;
52508;SDS011;38420;53.150;6.370;2023-05-17T00:22:35;23.15;;;5.20;;
52508;SDS011;38420;53.150;6.370;2023-05-17T00:25:01;17.65;;;4.30;;
52508;SDS011;38420;53.150;6.370;2023-05-17T00:27:27;18.15;;;4.15;;
52508;SDS011;38420;53.150;6.370;2023-05-17T00:29:52;24.83;;;5.05;;
52508;SDS011;38420;53.150;6.370;2023-05-17T00:32:18;29.17;;;5.18;;
52508;SDS011;38420;53.150;6.370;2023-05-17T00:34:44;27.65;;;5.35;;
52508;SDS011;38420;53.150;6.370;2023-05-17T00:37:09;25.55;;;5.40;;
52508;SDS011;38420;53.150;6.370;2023-05-17T00:39:35;28.88;;;3.90;;
52508;SDS011;38420;53.150;6.370;2023-05-17T00:42:00;24.85;;;5.07;;
52508;SDS011;38420;53.150;6.370;2023-05-17T00:44:26;29.80;;;5.32;;
52508;SDS011;38420;53.150;6.370;2023-05-17T00:46:52;23.88;;;5.22;;
52508;SDS011;38420;53.150;6.370;2023-05-17T00:49:17;27.05;;;4.53;;
52508;SDS011;38420;53.150;6.370;2023-05-17T00:51:43;28.48;;;4.55;;
52508;SDS011;38420;53.150;6.370;2023-05-17T00:54:09;25.88;;;4.75;;
52508;SDS011;38420;53.150;6.370;2023-05-17T00:56:35;26.40;;;5.32;;
52508;SDS011;38420;53.150;6.370;2023-05-17T00:59:03;25.50;;;5.78;;
52508;SDS011;38420;53.150;6.370;2023-05-17T01:01:30;22.77;;;5.22;;
52508;SDS011;38420;53.150;6.370;2023-05-17T01:03:57;34.08;;;5.72;;
52508;SDS011;38420;53.150;6.370;2023-05-17T01:06:23;32.63;;;5.50;;
52508;SDS011;38420;53.150;6.370;2023-05-17T01:08:49;32.05;;;5.85;;
52508;SDS011;38420;53.150;6.370;2023-05-17T01:14:14;21.52;;;4.68;;
52508;SDS011;38420;53.150;6.370;2023-05-17T01:16:54;22.73;;;4.68;;
52508;SDS011;38420;53.150;6.370;2023-05-17T01:27:49;17.65;;;4.13;;
52508;SDS011;38420;53.150;6.370;2023-05-17T01:30:16;24.55;;;4.85;;
52508;SDS011;38420;53.150;6.370;2023-05-17T01:32:44;20.50;;;4.15;;
52508;SDS011;38420;53.150;6.370;2023-05-17T01:35:10;32.38;;;5.03;;
52508;SDS011;38420;53.150;6.370;2023-05-17T01:37:37;27.05;;;4.50;;
52508;SDS011;38420;53.150;6.370;2023-05-17T01:40:03;20.48;;;4.53;;
52508;SDS011;38420;53.150;6.370;2023-05-17T01:42:31;21.40;;;4.90;;
52508;SDS011;38420;53.150;6.370;2023-05-17T01:48:19;24.80;;;4.93;;
52508;SDS011;38420;53.150;6.370;2023-05-17T01:50:50;22.17;;;4.03;;
52508;SDS011;38420;53.150;6.370;2023-05-17T01:53:28;18.40;;;4.32;;
52508;SDS011;38420;53.150;6.370;2023-05-17T01:56:00;23.52;;;4.20;;
52508;SDS011;38420;53.150;6.370;2023-05-17T01:58:30;21.25;;;4.13;;
52508;SDS011;38420;53.150;6.370;2023-05-17T02:01:03;24.90;;;4.10;;
52508;SDS011;38420;53.150;6.370;2023-05-17T02:03:30;24.92;;;3.80;;
52508;SDS011;38420;53.150;6.370;2023-05-17T02:05:56;18.63;;;4.35;;
52508;SDS011;38420;53.150;6.370;2023-05-17T02:08:21;21.55;;;4.60;;
52508;SDS011;38420;53.150;6.370;2023-05-17T02:10:47;21.13;;;4.22;;
52508;SDS011;38420;53.150;6.370;2023-05-17T02:13:12;19.98;;;4.38;;
52508;SDS011;38420;53.150;6.370;2023-05-17T02:15:38;20.02;;;4.55;;
52508;SDS011;38420;53.150;6.370;2023-05-17T02:18:04;29.35;;;5.22;;
52508;SDS011;38420;53.150;6.370;2023-05-17T02:20:29;18.38;;;4.05;;
52508;SDS011;38420;53.150;6.370;2023-05-17T02:22:55;16.73;;;3.58;;
52508;SDS011;38420;53.150;6.370;2023-05-17T02:25:20;19.77;;;3.97;;
52508;SDS011;38420;53.150;6.370;2023-05-17T02:27:46;15.38;;;3.40;;
52508;SDS011;38420;53.150;6.370;2023-05-17T02:30:12;16.77;;;4.00;;
52508;SDS011;38420;53.150;6.370;2023-05-17T02:32:38;22.23;;;4.03;;
52508;SDS011;38420;53.150;6.370;2023-05-17T02:35:04;20.50;;;4.10;;
52508;SDS011;38420;53.150;6.370;2023-05-17T02:37:30;15.18;;;3.95;;
52508;SDS011;38420;53.150;6.370;2023-05-17T02:39:56;18.65;;;3.95;;
52508;SDS011;38420;53.150;6.370;2023-05-17T02:42:21;21.33;;;3.83;;
52508;SDS011;38420;53.150;6.370;2023-05-17T02:44:47;15.30;;;3.40;;
52508;SDS011;38420;53.150;6.370;2023-05-17T02:47:16;16.73;;;3.22;;
52508;SDS011;38420;53.150;6.370;2023-05-17T02:49:42;14.90;;;2.97;;
52508;SDS011;38420;53.150;6.370;2023-05-17T02:52:08;15.60;;;3.50;;
52508;SDS011;38420;53.150;6.370;2023-05-17T02:54:34;22.27;;;3.78;;
52508;SDS011;38420;53.150;6.370;2023-05-17T02:56:59;16.55;;;3.42;;
52508;SDS011;38420;53.150;6.370;2023-05-17T02:59:25;19.77;;;3.97;;
52508;SDS011;38420;53.150;6.370;2023-05-17T03:01:50;23.17;;;3.95;;
52508;SDS011;38420;53.150;6.370;2023-05-17T03:04:16;13.60;;;3.38;;
52508;SDS011;38420;53.150;6.370;2023-05-17T03:06:44;12.07;;;2.60;;
52508;SDS011;38420;53.150;6.370;2023-05-17T03:09:10;18.17;;;3.63;;
52508;SDS011;38420;53.150;6.370;2023-05-17T03:11:35;14.65;;;3.08;;
52508;SDS011;38420;53.150;6.370;2023-05-17T03:14:01;17.67;;;2.67;;
52508;SDS011;38420;53.150;6.370;2023-05-17T03:16:26;13.75;;;3.15;;
52508;SDS011;38420;53.150;6.370;2023-05-17T03:18:52;15.90;;;3.28;;
52508;SDS011;38420;53.150;6.370;2023-05-17T03:21:18;20.08;;;3.30;;
52508;SDS011;38420;53.150;6.370;2023-05-17T03:23:43;16.40;;;3.15;;
52508;SDS011;38420;53.150;6.370;2023-05-17T03:26:09;13.48;;;2.65;;
52508;SDS011;38420;53.150;6.370;2023-05-17T03:28:34;13.40;;;2.50;;
52508;SDS011;38420;53.150;6.370;2023-05-17T03:31:00;12.45;;;2.78;;
52508;SDS011;38420;53.150;6.370;2023-05-17T03:33:26;16.95;;;2.83;;
52508;SDS011;38420;53.150;6.370;2023-05-17T03:35:51;9.93;;;2.10;;
52508;SDS011;38420;53.150;6.370;2023-05-17T03:38:17;17.73;;;2.92;;
52508;SDS011;38420;53.150;6.370;2023-05-17T03:40:42;12.95;;;2.50;;
52508;SDS011;38420;53.150;6.370;2023-05-17T03:43:08;14.20;;;2.53;;
52508;SDS011;38420;53.150;6.370;2023-05-17T03:45:33;11.05;;;2.97;;
52508;SDS011;38420;53.150;6.370;2023-05-17T03:47:59;7.32;;;2.00;;
52508;SDS011;38420;53.150;6.370;2023-05-17T03:50:25;10.45;;;2.28;;
52508;SDS011;38420;53.150;6.370;2023-05-17T03:52:50;15.55;;;2.78;;
52508;SDS011;38420;53.150;6.370;2023-05-17T03:55:16;10.35;;;2.60;;
52508;SDS011;38420;53.150;6.370;2023-05-17T03:57:41;10.27;;;1.80;;
52508;SDS011;38420;53.150;6.370;2023-05-17T04:00:07;8.30;;;2.22;;
52508;SDS011;38420;53.150;6.370;2023-05-17T04:02:35;10.52;;;2.47;;
52508;SDS011;38420;53.150;6.370;2023-05-17T04:05:01;13.57;;;2.40;;
52508;SDS011;38420;53.150;6.370;2023-05-17T04:07:27;13.55;;;1.90;;
52508;SDS011;38420;53.150;6.370;2023-05-17T04:09:53;8.70;;;2.22;;
52508;SDS011;38420;53.150;6.370;2023-05-17T04:12:23;8.52;;;1.80;;
52508;SDS011;38420;53.150;6.370;2023-05-17T04:14:48;11.27;;;2.22;;
52508;SDS011;38420;53.150;6.370;2023-05-17T04:17:14;10.80;;;3.13;;
52508;SDS011;38420;53.150;6.370;2023-05-17T04:19:39;13.95;;;3.25;;
52508;SDS011;38420;53.150;6.370;2023-05-17T04:22:05;13.40;;;2.17;;
52508;SDS011;38420;53.150;6.370;2023-05-17T04:24:30;13.77;;;2.92;;
52508;SDS011;38420;53.150;6.370;2023-05-17T04:26:56;14.88;;;3.17;;
52508;SDS011;38420;53.150;6.370;2023-05-17T04:29:23;12.50;;;2.50;;
52508;SDS011;38420;53.150;6.370;2023-05-17T04:31:49;8.30;;;1.95;;
52508;SDS011;38420;53.150;6.370;2023-05-17T04:34:15;8.68;;;1.88;;
52508;SDS011;38420;53.150;6.370;2023-05-17T04:36:40;13.43;;;2.60;;
52508;SDS011;38420;53.150;6.370;2023-05-17T04:39:06;11.85;;;2.40;;
52508;SDS011;38420;53.150;6.370;2023-05-17T04:41:32;13.27;;;2.60;;
52508;SDS011;38420;53.150;6.370;2023-05-17T04:43:57;9.55;;;1.85;;
52508;SDS011;38420;53.150;6.370;2023-05-17T04:46:23;10.88;;;1.83;;
52508;SDS011;38420;53.150;6.370;2023-05-17T04:48:48;8.65;;;1.88;;
52508;SDS011;38420;53.150;6.370;2023-05-17T04:51:14;9.57;;;1.63;;
52508;SDS011;38420;53.150;6.370;2023-05-17T04:53:39;10.40;;;2.40;;
52508;SDS011;38420;53.150;6.370;2023-05-17T04:56:05;10.50;;;1.77;;
52508;SDS011;38420;53.150;6.370;2023-05-17T04:58:31;15.35;;;2.40;;
52508;SDS011;38420;53.150;6.370;2023-05-17T05:00:56;11.30;;;2.42;;
52508;SDS011;38420;53.150;6.370;2023-05-17T05:03:22;8.38;;;2.10;;
52508;SDS011;38420;53.150;6.370;2023-05-17T05:05:48;8.52;;;2.08;;
52508;SDS011;38420;53.150;6.370;2023-05-17T05:08:13;15.13;;;2.38;;
52508;SDS011;38420;53.150;6.370;2023-05-17T05:10:39;12.93;;;2.50;;
52508;SDS011;38420;53.150;6.370;2023-05-17T05:13:04;15.30;;;2.70;;
52508;SDS011;38420;53.150;6.370;2023-05-17T05:15:30;12.55;;;1.92;;
52508;SDS011;38420;53.150;6.370;2023-05-17T05:17:56;5.13;;;1.35;;
52508;SDS011;38420;53.150;6.370;2023-05-17T05:20:22;9.43;;;2.30;;
52508;SDS011;38420;53.150;6.370;2023-05-17T05:22:47;7.53;;;1.80;;
52508;SDS011;38420;53.150;6.370;2023-05-17T05:25:13;13.52;;;2.22;;
52508;SDS011;38420;53.150;6.370;2023-05-17T05:27:39;11.90;;;2.45;;
52508;SDS011;38420;53.150;6.370;2023-05-17T05:30:04;7.13;;;1.65;;
52508;SDS011;38420;53.150;6.370;2023-05-17T05:32:31;10.20;;;2.55;;
52508;SDS011;38420;53.150;6.370;2023-05-17T05:34:56;13.60;;;2.05;;
52508;SDS011;38420;53.150;6.370;2023-05-17T05:37:22;10.00;;;2.42;;
52508;SDS011;38420;53.150;6.370;2023-05-17T05:39:47;13.50;;;2.35;;
52508;SDS011;38420;53.150;6.370;2023-05-17T05:42:13;9.45;;;1.90;;
52508;SDS011;38420;53.150;6.370;2023-05-17T05:44:39;10.80;;;3.03;;
52508;SDS011;38420;53.150;6.370;2023-05-17T05:47:04;18.67;;;2.40;;
52508;SDS011;38420;53.150;6.370;2023-05-17T05:49:30;12.48;;;2.15;;
52508;SDS011;38420;53.150;6.370;2023-05-17T05:51:56;13.30;;;2.10;;
52508;SDS011;38420;53.150;6.370;2023-05-17T05:54:21;14.23;;;2.47;;
52508;SDS011;38420;53.150;6.370;2023-05-17T05:56:47;11.18;;;2.80;;
52508;SDS011;38420;53.150;6.370;2023-05-17T05:59:12;12.13;;;2.78;;
52508;SDS011;38420;53.150;6.370;2023-05-17T06:01:38;17.55;;;3.00;;
52508;SDS011;38420;53.150;6.370;2023-05-17T06:04:05;11.02;;;3.10;;
52508;SDS011;38420;53.150;6.370;2023-05-17T06:06:30;17.45;;;3.35;;
52508;SDS011;38420;53.150;6.370;2023-05-17T06:08:56;20.05;;;3.22;;
52508;SDS011;38420;53.150;6.370;2023-05-17T06:11:22;16.17;;;2.85;;
52508;SDS011;38420;53.150;6.370;2023-05-17T06:13:49;15.85;;;3.03;;
52508;SDS011;38420;53.150;6.370;2023-05-17T06:16:15;11.65;;;2.78;;
52508;SDS011;38420;53.150;6.370;2023-05-17T06:18:40;16.65;;;3.05;;
52508;SDS011;38420;53.150;6.370;2023-05-17T06:21:06;22.65;;;3.83;;
52508;SDS011;38420;53.150;6.370;2023-05-17T06:23:31;12.05;;;3.60;;
52508;SDS011;38420;53.150;6.370;2023-05-17T06:25:57;15.43;;;2.75;;
52508;SDS011;38420;53.150;6.370;2023-05-17T06:28:23;17.88;;;3.30;;
52508;SDS011;38420;53.150;6.370;2023-05-17T06:30:49;19.48;;;3.22;;
52508;SDS011;38420;53.150;6.370;2023-05-17T06:33:14;17.13;;;3.28;;
52508;SDS011;38420;53.150;6.370;2023-05-17T06:35:40;16.83;;;3.17;;
52508;SDS011;38420;53.150;6.370;2023-05-17T06:38:05;14.38;;;3.28;;
52508;SDS011;38420;53.150;6.370;2023-05-17T06:40:31;15.20;;;3.22;;
52508;SDS011;38420;53.150;6.370;2023-05-17T06:42:56;11.43;;;2.50;;
52508;SDS011;38420;53.150;6.370;2023-05-17T06:45:22;14.73;;;3.20;;
52508;SDS011;38420;53.150;6.370;2023-05-17T06:47:48;17.13;;;3.35;;
52508;SDS011;38420;53.150;6.370;2023-05-17T06:50:13;10.90;;;2.63;;
52508;SDS011;38420;53.150;6.370;2023-05-17T06:52:39;15.40;;;3.60;;
52508;SDS011;38420;53.150;6.370;2023-05-17T06:55:05;14.95;;;3.03;;
52508;SDS011;38420;53.150;6.370;2023-05-17T06:57:31;15.45;;;3.00;;
52508;SDS011;38420;53.150;6.370;2023-05-17T06:59:57;19.55;;;3.40;;
52508;SDS011;38420;53.150;6.370;2023-05-17T07:02:22;13.95;;;2.80;;
52508;SDS011;38420;53.150;6.370;2023-05-17T07:04:48;17.65;;;3.08;;
52508;SDS011;38420;53.150;6.370;2023-05-17T07:07:14;18.67;;;3.50;;
52508;SDS011;38420;53.150;6.370;2023-05-17T07:09:39;19.85;;;3.00;;
52508;SDS011;38420;53.150;6.370;2023-05-17T07:12:05;15.30;;;3.60;;
52508;SDS011;38420;53.150;6.370;2023-05-17T07:14:31;11.23;;;2.47;;
52508;SDS011;38420;53.150;6.370;2023-05-17T07:16:58;16.17;;;3.03;;
52508;SDS011;38420;53.150;6.370;2023-05-17T07:19:24;16.65;;;3.53;;
52508;SDS011;38420;53.150;6.370;2023-05-17T07:21:50;11.95;;;2.95;;
52508;SDS011;38420;53.150;6.370;2023-05-17T07:24:16;16.45;;;2.70;;
52508;SDS011;38420;53.150;6.370;2023-05-17T07:26:41;13.18;;;3.05;;
52508;SDS011;38420;53.150;6.370;2023-05-17T07:29:07;13.75;;;3.05;;
52508;SDS011;38420;53.150;6.370;2023-05-17T07:31:33;18.25;;;3.00;;
52508;SDS011;38420;53.150;6.370;2023-05-17T07:33:58;10.95;;;2.80;;
52508;SDS011;38420;53.150;6.370;2023-05-17T07:36:24;14.95;;;2.67;;
52508;SDS011;38420;53.150;6.370;2023-05-17T07:38:54;15.50;;;2.70;;
52508;SDS011;38420;53.150;6.370;2023-05-17T07:41:20;14.05;;;3.10;;
52508;SDS011;38420;53.150;6.370;2023-05-17T07:43:47;14.40;;;2.60;;
52508;SDS011;38420;53.150;6.370;2023-05-17T07:46:13;15.23;;;3.00;;
52508;SDS011;38420;53.150;6.370;2023-05-17T07:48:38;13.25;;;3.33;;
52508;SDS011;38420;53.150;6.370;2023-05-17T07:51:04;13.80;;;2.97;;
52508;SDS011;38420;53.150;6.370;2023-05-17T07:53:30;12.48;;;2.53;;
52508;SDS011;38420;53.150;6.370;2023-05-17T07:55:55;13.18;;;3.25;;
52508;SDS011;38420;53.150;6.370;2023-05-17T07:58:21;12.02;;;3.13;;
52508;SDS011;38420;53.150;6.370;2023-05-17T08:00:46;16.98;;;2.97;;
52508;SDS011;38420;53.150;6.370;2023-05-17T08:03:13;10.90;;;2.80;;
52508;SDS011;38420;53.150;6.370;2023-05-17T08:05:38;12.75;;;3.15;;
52508;SDS011;38420;53.150;6.370;2023-05-17T08:08:04;10.98;;;2.60;;
52508;SDS011;38420;53.150;6.370;2023-05-17T08:10:30;14.20;;;2.72;;
52508;SDS011;38420;53.150;6.370;2023-05-17T08:12:56;15.77;;;2.85;;
52508;SDS011;38420;53.150;6.370;2023-05-17T08:15:22;16.85;;;3.58;;
52508;SDS011;38420;53.150;6.370;2023-05-17T08:17:47;13.82;;;2.95;;
52508;SDS011;38420;53.150;6.370;2023-05-17T08:20:13;18.83;;;3.35;;
52508;SDS011;38420;53.150;6.370;2023-05-17T08:22:39;18.30;;;3.45;;
52508;SDS011;38420;53.150;6.370;2023-05-17T08:25:05;15.40;;;2.83;;
52508;SDS011;38420;53.150;6.370;2023-05-17T08:27:31;15.95;;;3.33;;
52508;SDS011;38420;53.150;6.370;2023-05-17T08:29:57;15.63;;;3.28;;
52508;SDS011;38420;53.150;6.370;2023-05-17T08:32:23;14.20;;;2.60;;
52508;SDS011;38420;53.150;6.370;2023-05-17T08:34:49;12.05;;;3.35;;
52508;SDS011;38420;53.150;6.370;2023-05-17T08:37:16;13.55;;;3.20;;
52508;SDS011;38420;53.150;6.370;2023-05-17T08:39:42;12.75;;;3.03;;
52508;SDS011;38420;53.150;6.370;2023-05-17T08:42:07;20.20;;;3.10;;
52508;SDS011;38420;53.150;6.370;2023-05-17T08:44:33;11.25;;;3.00;;
52508;SDS011;38420;53.150;6.370;2023-05-17T08:47:00;11.57;;;3.15;;
52508;SDS011;38420;53.150;6.370;2023-05-17T08:49:27;14.40;;;2.90;;
52508;SDS011;38420;53.150;6.370;2023-05-17T08:51:58;13.85;;;2.75;;
52508;SDS011;38420;53.150;6.370;2023-05-17T08:54:24;9.80;;;2.88;;
52508;SDS011;38420;53.150;6.370;2023-05-17T08:56:52;9.02;;;2.50;;
52508;SDS011;38420;53.150;6.370;2023-05-17T08:59:22;10.85;;;2.25;;
52508;SDS011;38420;53.150;6.370;2023-05-17T09:01:50;10.18;;;2.70;;
52508;SDS011;38420;53.150;6.370;2023-05-17T09:04:18;17.33;;;2.97;;
52508;SDS011;38420;53.150;6.370;2023-05-17T09:06:44;13.07;;;2.90;;
52508;SDS011;38420;53.150;6.370;2023-05-17T09:09:10;11.40;;;2.90;;
52508;SDS011;38420;53.150;6.370;2023-05-17T09:11:35;11.10;;;2.28;;
52508;SDS011;38420;53.150;6.370;2023-05-17T09:14:04;17.45;;;2.58;;
52508;SDS011;38420;53.150;6.370;2023-05-17T09:16:31;14.43;;;2.80;;
52508;SDS011;38420;53.150;6.370;2023-05-17T09:18:59;15.80;;;3.00;;
52508;SDS011;38420;53.150;6.370;2023-05-17T09:21:25;14.18;;;3.25;;
52508;SDS011;38420;53.150;6.370;2023-05-17T09:23:52;9.43;;;2.88;;
52508;SDS011;38420;53.150;6.370;2023-05-17T09:26:18;12.20;;;2.50;;
52508;SDS011;38420;53.150;6.370;2023-05-17T09:28:45;9.07;;;2.35;;
52508;SDS011;38420;53.150;6.370;2023-05-17T09:31:13;15.40;;;3.25;;
52508;SDS011;38420;53.150;6.370;2023-05-17T09:33:47;11.25;;;2.83;;
52508;SDS011;38420;53.150;6.370;2023-05-17T09:36:14;10.90;;;2.25;;
52508;SDS011;38420;53.150;6.370;2023-05-17T09:38:41;17.45;;;2.90;;
52508;SDS011;38420;53.150;6.370;2023-05-17T09:41:07;12.60;;;2.33;;
52508;SDS011;38420;53.150;6.370;2023-05-17T09:43:32;9.88;;;2.58;;
52508;SDS011;38420;53.150;6.370;2023-05-17T09:45:58;12.05;;;2.47;;
52508;SDS011;38420;53.150;6.370;2023-05-17T09:48:26;13.27;;;2.90;;
52508;SDS011;38420;53.150;6.370;2023-05-17T09:50:52;11.25;;;2.50;;
52508;SDS011;38420;53.150;6.370;2023-05-17T09:53:39;8.80;;;2.20;;
52508;SDS011;38420;53.150;6.370;2023-05-17T09:56:05;12.27;;;2.22;;
52508;SDS011;38420;53.150;6.370;2023-05-17T09:58:32;7.72;;;2.35;;
52508;SDS011;38420;53.150;6.370;2023-05-17T10:00:59;7.82;;;1.85;;
52508;SDS011;38420;53.150;6.370;2023-05-17T10:03:29;13.38;;;2.72;;
52508;SDS011;38420;53.150;6.370;2023-05-17T10:05:57;12.05;;;2.88;;
52508;SDS011;38420;53.150;6.370;2023-05-17T10:08:24;10.05;;;2.40;;
52508;SDS011;38420;53.150;6.370;2023-05-17T10:10:54;10.35;;;2.42;;
52508;SDS011;38420;53.150;6.370;2023-05-17T10:13:33;10.60;;;2.38;;
52508;SDS011;38420;53.150;6.370;2023-05-17T10:16:13;12.65;;;2.67;;
52508;SDS011;38420;53.150;6.370;2023-05-17T10:18:39;11.75;;;2.80;;
52508;SDS011;38420;53.150;6.370;2023-05-17T10:21:06;12.07;;;2.55;;
52508;SDS011;38420;53.150;6.370;2023-05-17T10:23:32;10.50;;;2.10;;
52508;SDS011;38420;53.150;6.370;2023-05-17T10:25:58;14.27;;;2.08;;
52508;SDS011;38420;53.150;6.370;2023-05-17T10:28:25;10.43;;;3.28;;
52508;SDS011;38420;53.150;6.370;2023-05-17T10:30:52;9.68;;;2.80;;
52508;SDS011;38420;53.150;6.370;2023-05-17T10:33:19;9.30;;;2.38;;
52508;SDS011;38420;53.150;6.370;2023-05-17T10:35:46;8.20;;;2.58;;
52508;SDS011;38420;53.150;6.370;2023-05-17T10:38:14;6.25;;;2.38;;
52508;SDS011;38420;53.150;6.370;2023-05-17T10:40:41;12.07;;;2.30;;
52508;SDS011;38420;53.150;6.370;2023-05-17T10:43:09;9.48;;;2.42;;
52508;SDS011;38420;53.150;6.370;2023-05-17T10:45:35;7.32;;;2.17;;
52508;SDS011;38420;53.150;6.370;2023-05-17T10:48:05;7.78;;;2.40;;
52508;SDS011;38420;53.150;6.370;2023-05-17T10:50:32;12.40;;;2.50;;
52508;SDS011;38420;53.150;6.370;2023-05-17T10:53:00;13.18;;;2.55;;
52508;SDS011;38420;53.150;6.370;2023-05-17T10:58:17;13.77;;;2.67;;
52508;SDS011;38420;53.150;6.370;2023-05-17T11:00:48;12.00;;;2.88;;
52508;SDS011;38420;53.150;6.370;2023-05-17T11:05:43;9.07;;;2.63;;
52508;SDS011;38420;53.150;6.370;2023-05-17T11:08:29;7.40;;;2.40;;
52508;SDS011;38420;53.150;6.370;2023-05-17T11:13:49;9.77;;;2.42;;
52508;SDS011;38420;53.150;6.370;2023-05-17T11:16:16;14.05;;;2.67;;
52508;SDS011;38420;53.150;6.370;2023-05-17T11:18:47;12.50;;;2.88;;
52508;SDS011;38420;53.150;6.370;2023-05-17T11:21:14;17.30;;;2.78;;
52508;SDS011;38420;53.150;6.370;2023-05-17T11:23:43;10.40;;;2.35;;
52508;SDS011;38420;53.150;6.370;2023-05-17T11:28:59;13.73;;;2.38;;
52508;SDS011;38420;53.150;6.370;2023-05-17T11:31:33;10.60;;;2.10;;
52508;SDS011;38420;53.150;6.370;2023-05-17T11:34:01;15.25;;;3.25;;
52508;SDS011;38420;53.150;6.370;2023-05-17T11:36:28;11.70;;;2.80;;
52508;SDS011;38420;53.150;6.370;2023-05-17T11:39:10;11.23;;;3.20;;
52508;SDS011;38420;53.150;6.370;2023-05-17T11:41:37;10.38;;;3.05;;
52508;SDS011;38420;53.150;6.370;2023-05-17T11:44:09;13.02;;;2.67;;
52508;SDS011;38420;53.150;6.370;2023-05-17T11:46:35;15.73;;;4.32;;
52508;SDS011;38420;53.150;6.370;2023-05-17T11:49:05;12.13;;;2.75;;
52508;SDS011;38420;53.150;6.370;2023-05-17T11:51:31;13.18;;;2.75;;
52508;SDS011;38420;53.150;6.370;2023-05-17T11:53:57;11.80;;;2.28;;
52508;SDS011;38420;53.150;6.370;2023-05-17T11:56:23;12.55;;;2.67;;
52508;SDS011;38420;53.150;6.370;2023-05-17T11:58:50;20.13;;;2.92;;
52508;SDS011;38420;53.150;6.370;2023-05-17T12:01:19;12.77;;;2.80;;
52508;SDS011;38420;53.150;6.370;2023-05-17T12:03:45;12.68;;;2.47;;
52508;SDS011;38420;53.150;6.370;2023-05-17T12:06:16;11.43;;;3.13;;
52508;SDS011;38420;53.150;6.370;2023-05-17T12:08:43;11.35;;;2.50;;
52508;SDS011;38420;53.150;6.370;2023-05-17T12:11:10;7.25;;;2.20;;
52508;SDS011;38420;53.150;6.370;2023-05-17T12:13:38;16.45;;;2.33;;
52508;SDS011;38420;53.150;6.370;2023-05-17T12:16:11;8.95;;;2.10;;
52508;SDS011;38420;53.150;6.370;2023-05-17T12:18:39;8.13;;;2.27;;
52508;SDS011;38420;53.150;6.370;2023-05-17T12:21:08;10.10;;;2.13;;
52508;SDS011;38420;53.150;6.370;2023-05-17T12:23:35;9.43;;;1.90;;
52508;SDS011;38420;53.150;6.370;2023-05-17T12:26:05;11.75;;;2.13;;
52508;SDS011;38420;53.150;6.370;2023-05-17T12:28:31;11.10;;;2.10;;
52508;SDS011;38420;53.150;6.370;2023-05-17T12:30:57;12.30;;;2.00;;
52508;SDS011;38420;53.150;6.370;2023-05-17T12:33:30;7.25;;;1.88;;
52508;SDS011;38420;53.150;6.370;2023-05-17T12:36:00;12.63;;;2.30;;
52508;SDS011;38420;53.150;6.370;2023-05-17T12:38:28;9.02;;;2.03;;
52508;SDS011;38420;53.150;6.370;2023-05-17T12:40:57;11.50;;;2.50;;
52508;SDS011;38420;53.150;6.370;2023-05-17T12:43:25;15.40;;;2.47;;
52508;SDS011;38420;53.150;6.370;2023-05-17T12:45:52;10.57;;;2.22;;
52508;SDS011;38420;53.150;6.370;2023-05-17T12:48:18;11.10;;;2.00;;
52508;SDS011;38420;53.150;6.370;2023-05-17T12:50:47;10.30;;;2.03;;
52508;SDS011;38420;53.150;6.370;2023-05-17T12:53:15;8.23;;;2.20;;
52508;SDS011;38420;53.150;6.370;2023-05-17T12:55:41;7.38;;;2.03;;
52508;SDS011;38420;53.150;6.370;2023-05-17T12:58:06;10.05;;;2.05;;
52508;SDS011;38420;53.150;6.370;2023-05-17T13:00:32;9.93;;;2.30;;
52508;SDS011;38420;53.150;6.370;2023-05-17T13:02:57;7.88;;;2.38;;
52508;SDS011;38420;53.150;6.370;2023-05-17T13:05:23;9.52;;;2.58;;
52508;SDS011;38420;53.150;6.370;2023-05-17T13:07:49;12.00;;;2.65;;
52508;SDS011;38420;53.150;6.370;2023-05-17T13:10:21;10.52;;;2.40;;
52508;SDS011;38420;53.150;6.370;2023-05-17T13:15:25;12.63;;;2.63;;
52508;SDS011;38420;53.150;6.370;2023-05-17T13:17:54;9.10;;;2.38;;
52508;SDS011;38420;53.150;6.370;2023-05-17T13:20:20;9.45;;;2.00;;
52508;SDS011;38420;53.150;6.370;2023-05-17T13:22:47;7.10;;;2.15;;
52508;SDS011;38420;53.150;6.370;2023-05-17T13:25:13;10.82;;;2.08;;
52508;SDS011;38420;53.150;6.370;2023-05-17T13:27:38;14.60;;;2.90;;
52508;SDS011;38420;53.150;6.370;2023-05-17T13:30:09;9.35;;;2.33;;
52508;SDS011;38420;53.150;6.370;2023-05-17T13:32:35;8.15;;;2.67;;
52508;SDS011;38420;53.150;6.370;2023-05-17T13:35:01;11.68;;;2.78;;
52508;SDS011;38420;53.150;6.370;2023-05-17T13:37:27;9.07;;;2.22;;
52508;SDS011;38420;53.150;6.370;2023-05-17T13:39:52;11.68;;;2.60;;
52508;SDS011;38420;53.150;6.370;2023-05-17T13:42:21;8.82;;;2.40;;
52508;SDS011;38420;53.150;6.370;2023-05-17T13:44:47;12.80;;;2.80;;
52508;SDS011;38420;53.150;6.370;2023-05-17T13:47:13;12.93;;;2.45;;
52508;SDS011;38420;53.150;6.370;2023-05-17T13:49:39;11.40;;;2.63;;
52508;SDS011;38420;53.150;6.370;2023-05-17T13:52:05;7.05;;;2.30;;
52508;SDS011;38420;53.150;6.370;2023-05-17T13:54:34;5.78;;;2.13;;
52508;SDS011;38420;53.150;6.370;2023-05-17T13:57:00;9.65;;;2.28;;
52508;SDS011;38420;53.150;6.370;2023-05-17T13:59:26;12.05;;;2.70;;
52508;SDS011;38420;53.150;6.370;2023-05-17T14:01:52;11.63;;;2.85;;
52508;SDS011;38420;53.150;6.370;2023-05-17T14:04:18;12.38;;;2.45;;
52508;SDS011;38420;53.150;6.370;2023-05-17T14:06:45;9.90;;;2.28;;
52508;SDS011;38420;53.150;6.370;2023-05-17T14:09:10;11.68;;;2.25;;
52508;SDS011;38420;53.150;6.370;2023-05-17T14:11:36;9.68;;;2.00;;
52508;SDS011;38420;53.150;6.370;2023-05-17T14:14:02;11.23;;;1.95;;
52508;SDS011;38420;53.150;6.370;2023-05-17T14:16:28;12.88;;;3.08;;
52508;SDS011;38420;53.150;6.370;2023-05-17T14:18:53;10.80;;;2.47;;
52508;SDS011;38420;53.150;6.370;2023-05-17T14:21:19;8.60;;;2.13;;
52508;SDS011;38420;53.150;6.370;2023-05-17T14:23:45;14.10;;;2.22;;
52508;SDS011;38420;53.150;6.370;2023-05-17T14:26:10;7.93;;;1.70;;
52508;SDS011;38420;53.150;6.370;2023-05-17T14:28:36;6.72;;;2.03;;
52508;SDS011;38420;53.150;6.370;2023-05-17T14:31:03;7.32;;;2.10;;
52508;SDS011;38420;53.150;6.370;2023-05-17T14:33:30;11.27;;;2.90;;
52508;SDS011;38420;53.150;6.370;2023-05-17T14:35:56;12.35;;;2.47;;
52508;SDS011;38420;53.150;6.370;2023-05-17T14:38:21;8.05;;;2.15;;
52508;SDS011;38420;53.150;6.370;2023-05-17T14:40:47;11.93;;;2.50;;
52508;SDS011;38420;53.150;6.370;2023-05-17T14:43:13;13.63;;;2.30;;
52508;SDS011;38420;53.150;6.370;2023-05-17T14:45:38;9.40;;;2.72;;
52508;SDS011;38420;53.150;6.370;2023-05-17T14:48:04;5.85;;;2.00;;
52508;SDS011;38420;53.150;6.370;2023-05-17T14:50:30;6.70;;;1.95;;
52508;SDS011;38420;53.150;6.370;2023-05-17T14:52:59;10.05;;;2.58;;
52508;SDS011;38420;53.150;6.370;2023-05-17T14:55:25;4.90;;;1.50;;
52508;SDS011;38420;53.150;6.370;2023-05-17T14:57:51;6.03;;;1.77;;
52508;SDS011;38420;53.150;6.370;2023-05-17T15:00:17;9.38;;;1.98;;
52508;SDS011;38420;53.150;6.370;2023-05-17T15:02:44;8.57;;;2.13;;